createdAt,value
2023-02-11T00:07:48.380Z,45.70
2023-02-11T00:17:48.349Z,36.10
2023-02-11T00:27:48.499Z,35.50
2023-02-11T00:37:48.284Z,35.40
2023-02-11T00:47:48.287Z,31.50
2023-02-11T00:57:48.232Z,39.40
2023-02-11T01:07:48.041Z,41.60
2023-02-11T01:17:47.969Z,39.70
2023-02-11T01:27:47.892Z,34.60
2023-02-11T01:37:47.756Z,35.70
2023-02-11T01:47:47.717Z,33.30
2023-02-11T01:57:47.505Z,34.70
2023-02-11T02:07:47.415Z,37.10
2023-02-11T02:17:47.220Z,36.90
2023-02-11T02:27:47.353Z,38.70
2023-02-11T02:37:46.977Z,37.20
2023-02-11T02:47:46.712Z,34.80
2023-02-11T02:57:46.509Z,35.10
2023-02-11T03:07:46.353Z,31.90
2023-02-11T03:17:46.236Z,33.90
2023-02-11T03:27:46.072Z,39.50
2023-02-11T03:37:45.915Z,34.60
2023-02-11T03:47:45.688Z,33.20
2023-02-11T03:57:45.507Z,42.70
2023-02-11T04:07:45.279Z,49.50
2023-02-11T04:17:45.090Z,50.60
2023-02-11T04:27:44.843Z,53.70
2023-02-11T04:37:44.658Z,46.50
2023-02-11T04:47:44.511Z,49.60
2023-02-11T04:57:44.300Z,45.30
2023-02-11T05:07:44.067Z,36.30
2023-02-11T05:17:43.943Z,46.80
2023-02-11T05:27:43.681Z,54.50
2023-02-11T05:37:43.593Z,55.80
2023-02-11T05:47:43.302Z,53.40
2023-02-11T05:57:43.199Z,52.00
2023-02-11T06:07:42.932Z,43.30
2023-02-11T06:17:42.748Z,51.30
2023-02-11T06:27:42.649Z,51.90
2023-02-11T06:37:42.403Z,50.10
2023-02-11T06:47:42.244Z,62.80
2023-02-11T06:57:42.116Z,55.80
2023-02-11T07:07:41.928Z,56.40
2023-02-11T07:17:41.759Z,48.00
2023-02-11T07:27:41.687Z,51.60
2023-02-11T07:37:41.535Z,58.50
2023-02-11T07:47:41.535Z,70.30
2023-02-11T07:57:41.578Z,63.70
2023-02-11T08:07:41.535Z,58.30
2023-02-11T08:17:41.580Z,59.90
2023-02-11T08:27:41.544Z,56.80
2023-02-11T08:37:41.548Z,61.80
2023-02-11T08:47:41.635Z,58.60
2023-02-11T08:57:41.697Z,54.70
2023-02-11T09:07:41.872Z,59.50
2023-02-11T09:17:42.088Z,62.50
2023-02-11T09:27:42.282Z,60.10
2023-02-11T09:37:42.575Z,53.80
2023-02-11T09:47:42.932Z,49.60
2023-02-11T09:57:43.298Z,37.20
2023-02-11T10:07:43.640Z,33.10
2023-02-11T10:17:44.036Z,37.60
2023-02-11T10:27:44.474Z,34.00
2023-02-11T10:37:46.241Z,33.80
2023-02-11T10:47:45.274Z,32.50
2023-02-11T10:57:45.708Z,34.90
2023-02-11T11:07:47.311Z,30.00
2023-02-11T11:17:46.613Z,29.60
2023-02-11T11:27:47.019Z,30.40
2023-02-11T11:37:47.540Z,28.80
2023-02-11T11:47:48.145Z,31.00
2023-02-11T11:57:48.546Z,27.50
2023-02-11T12:07:50.364Z,25.10
2023-02-11T12:17:49.533Z,25.80
2023-02-11T12:27:50.066Z,23.80
2023-02-11T12:37:50.586Z,25.90
2023-02-11T12:47:51.860Z,27.90
2023-02-11T12:57:52.956Z,24.10
2023-02-11T13:07:52.257Z,20.80
2023-02-11T13:17:52.562Z,21.00
2023-02-11T13:27:53.125Z,19.20
2023-02-11T13:37:53.574Z,19.40
2023-02-11T13:47:54.251Z,19.50
2023-02-11T13:57:56.088Z,21.50
2023-02-11T14:07:56.497Z,17.00
2023-02-11T14:17:55.406Z,17.50
2023-02-11T14:27:55.976Z,18.70
2023-02-11T14:37:56.647Z,19.70
2023-02-11T14:47:59.340Z,21.60
2023-02-11T14:57:57.459Z,20.00
2023-02-11T15:07:58.044Z,22.30
2023-02-11T15:17:58.485Z,21.10
2023-02-11T15:28:00.620Z,21.20
2023-02-11T15:37:59.576Z,23.10
2023-02-11T15:48:00.167Z,26.10
2023-02-11T15:58:00.583Z,24.80
2023-02-11T16:08:01.469Z,25.30
2023-02-11T16:18:01.656Z,22.30
2023-02-11T16:38:02.624Z,20.70
2023-02-11T16:48:02.909Z,23.00
2023-02-11T16:58:03.776Z,22.20
2023-02-11T17:08:03.988Z,25.30
2023-02-11T17:18:06.772Z,18.80
2023-02-11T17:28:05.006Z,22.90
2023-02-11T17:38:05.528Z,25.70
2023-02-11T17:48:05.930Z,23.90
2023-02-11T17:58:06.397Z,24.40
2023-02-11T18:08:08.824Z,23.90
2023-02-11T18:18:07.938Z,21.00
2023-02-11T18:28:09.445Z,23.00
2023-02-11T18:38:09.963Z,23.20
2023-02-11T18:48:08.622Z,24.20
2023-02-11T18:58:12.301Z,24.90
2023-02-11T19:08:09.578Z,26.60
2023-02-11T19:18:10.241Z,22.40
2023-02-11T19:28:10.532Z,24.00
2023-02-11T19:38:10.965Z,21.40
2023-02-11T19:48:12.639Z,18.60
2023-02-11T19:58:11.885Z,21.50
2023-02-11T20:18:12.739Z,24.60
2023-02-11T20:28:13.052Z,20.50
2023-02-11T20:38:13.609Z,21.80
2023-02-11T20:48:14.194Z,19.30
2023-02-11T20:58:14.653Z,22.40
2023-02-11T21:08:14.924Z,18.10
2023-02-11T21:18:15.294Z,20.20
2023-02-11T21:28:15.834Z,17.60
2023-02-11T21:38:17.096Z,19.20
2023-02-11T21:48:16.423Z,18.80
2023-02-11T21:58:16.922Z,19.10
2023-02-11T22:08:20.100Z,20.30
2023-02-11T22:18:18.233Z,20.80
2023-02-11T22:28:18.500Z,19.40
2023-02-11T22:38:18.875Z,18.90
2023-02-11T22:48:21.422Z,20.10
2023-02-11T22:58:19.769Z,19.60
2023-02-11T23:08:20.224Z,18.30
2023-02-11T23:18:20.806Z,21.20
2023-02-11T23:28:21.252Z,17.70
2023-02-11T23:38:21.672Z,18.30
2023-02-11T23:48:22.000Z,18.00
2023-02-11T23:58:22.448Z,18.10
